sensor_id;sensor_type;location;lat;lon;timestamp;temperature;humidity
19888;DHT22;10106;51.332;12.336;2023-03-01T00:01:46;-1.90;99.90
19888;DHT22;10106;51.332;12.336;2023-03-01T00:04:12;-1.80;99.90
19888;DHT22;10106;51.332;12.336;2023-03-01T00:06:37;-1.80;99.90
19888;DHT22;10106;51.332;12.336;2023-03-01T00:09:03;-1.70;99.90
19888;DHT22;10106;51.332;12.336;2023-03-01T00:11:29;-1.70;99.90
19888;DHT22;10106;51.332;12.336;2023-03-01T00:13:56;-1.70;99.90
19888;DHT22;10106;51.332;12.336;2023-03-01T00:16:23;-1.70;99.90
19888;DHT22;10106;51.332;12.336;2023-03-01T00:18:49;-1.70;99.90
19888;DHT22;10106;51.332;12.336;2023-03-01T00:21:14;-1.70;99.90
19888;DHT22;10106;51.332;12.336;2023-03-01T00:23:40;-1.80;99.90
19888;DHT22;10106;51.332;12.336;2023-03-01T00:26:07;-1.70;99.90
19888;DHT22;10106;51.332;12.336;2023-03-01T00:28:32;-1.70;99.90
19888;DHT22;10106;51.332;12.336;2023-03-01T00:31:08;-1.70;99.90
19888;DHT22;10106;51.332;12.336;2023-03-01T00:33:34;-1.70;99.90
19888;DHT22;10106;51.332;12.336;2023-03-01T00:35:59;-1.60;99.90
19888;DHT22;10106;51.332;12.336;2023-03-01T00:38:25;-1.70;99.90
19888;DHT22;10106;51.332;12.336;2023-03-01T00:40:51;-1.70;99.90
19888;DHT22;10106;51.332;12.336;2023-03-01T00:43:16;-1.70;99.90
19888;DHT22;10106;51.332;12.336;2023-03-01T00:45:42;-1.70;99.90
19888;DHT22;10106;51.332;12.336;2023-03-01T00:48:07;-1.70;99.90
19888;DHT22;10106;51.332;12.336;2023-03-01T00:50:33;-1.80;99.90
19888;DHT22;10106;51.332;12.336;2023-03-01T00:52:58;-1.80;99.90
19888;DHT22;10106;51.332;12.336;2023-03-01T00:55:24;-1.80;99.90
19888;DHT22;10106;51.332;12.336;2023-03-01T00:57:50;-1.90;99.90
19888;DHT22;10106;51.332;12.336;2023-03-01T01:00:16;-1.90;99.90
19888;DHT22;10106;51.332;12.336;2023-03-01T01:02:42;-2.00;99.90
19888;DHT22;10106;51.332;12.336;2023-03-01T01:05:08;-2.00;99.90
19888;DHT22;10106;51.332;12.336;2023-03-01T01:07:33;-2.10;99.90
19888;DHT22;10106;51.332;12.336;2023-03-01T01:09:59;-2.10;99.90
19888;DHT22;10106;51.332;12.336;2023-03-01T01:12:25;-2.20;99.90
19888;DHT22;10106;51.332;12.336;2023-03-01T01:14:50;-2.20;99.90
19888;DHT22;10106;51.332;12.336;2023-03-01T01:17:16;-2.20;99.90
19888;DHT22;10106;51.332;12.336;2023-03-01T01:19:41;-2.30;99.90
19888;DHT22;10106;51.332;12.336;2023-03-01T01:22:07;-2.30;99.90
19888;DHT22;10106;51.332;12.336;2023-03-01T01:24:32;-2.30;99.90
19888;DHT22;10106;51.332;12.336;2023-03-01T01:26:58;-2.40;99.90
19888;DHT22;10106;51.332;12.336;2023-03-01T01:29:23;-2.40;99.90
19888;DHT22;10106;51.332;12.336;2023-03-01T01:31:49;-2.40;99.90
19888;DHT22;10106;51.332;12.336;2023-03-01T01:34:16;-2.40;99.90
19888;DHT22;10106;51.332;12.336;2023-03-01T01:36:41;-2.40;99.90
19888;DHT22;10106;51.332;12.336;2023-03-01T01:39:07;-2.40;99.90
19888;DHT22;10106;51.332;12.336;2023-03-01T01:41:33;-2.40;99.90
19888;DHT22;10106;51.332;12.336;2023-03-01T01:46:57;-2.50;99.90
19888;DHT22;10106;51.332;12.336;2023-03-01T01:49:25;-2.50;99.90
19888;DHT22;10106;51.332;12.336;2023-03-01T01:51:55;-2.50;99.90
19888;DHT22;10106;51.332;12.336;2023-03-01T01:54:27;-2.50;99.90
19888;DHT22;10106;51.332;12.336;2023-03-01T01:57:01;-2.50;99.90
19888;DHT22;10106;51.332;12.336;2023-03-01T01:59:27;-2.60;99.90
19888;DHT22;10106;51.332;12.336;2023-03-01T02:01:53;-2.60;99.90
19888;DHT22;10106;51.332;12.336;2023-03-01T02:04:19;-2.60;99.90
19888;DHT22;10106;51.332;12.336;2023-03-01T02:06:49;-2.60;99.90
19888;DHT22;10106;51.332;12.336;2023-03-01T02:09:16;-2.60;99.90
19888;DHT22;10106;51.332;12.336;2023-03-01T02:11:44;-2.60;99.90
19888;DHT22;10106;51.332;12.336;2023-03-01T02:14:09;-2.70;99.90
19888;DHT22;10106;51.332;12.336;2023-03-01T02:16:35;-2.70;99.90
19888;DHT22;10106;51.332;12.336;2023-03-01T02:19:00;-2.70;99.90
19888;DHT22;10106;51.332;12.336;2023-03-01T02:21:33;-2.70;99.90
19888;DHT22;10106;51.332;12.336;2023-03-01T02:24:03;-2.70;99.90
19888;DHT22;10106;51.332;12.336;2023-03-01T02:26:51;-2.80;99.90
19888;DHT22;10106;51.332;12.336;2023-03-01T02:29:18;-2.80;99.90
19888;DHT22;10106;51.332;12.336;2023-03-01T02:31:43;-2.80;99.90
19888;DHT22;10106;51.332;12.336;2023-03-01T02:34:17;-2.70;99.90
19888;DHT22;10106;51.332;12.336;2023-03-01T02:36:45;-2.80;99.90
19888;DHT22;10106;51.332;12.336;2023-03-01T02:39:13;-2.80;99.90
19888;DHT22;10106;51.332;12.336;2023-03-01T02:41:42;-2.80;99.90
19888;DHT22;10106;51.332;12.336;2023-03-01T02:44:09;-2.90;99.90
19888;DHT22;10106;51.332;12.336;2023-03-01T02:46:41;-2.90;99.90
19888;DHT22;10106;51.332;12.336;2023-03-01T02:49:20;-2.90;99.90
19888;DHT22;10106;51.332;12.336;2023-03-01T02:51:56;-2.90;99.90
19888;DHT22;10106;51.332;12.336;2023-03-01T02:54:25;-2.90;99.90
19888;DHT22;10106;51.332;12.336;2023-03-01T02:56:55;-2.90;99.90
19888;DHT22;10106;51.332;12.336;2023-03-01T02:59:22;-3.00;99.90
19888;DHT22;10106;51.332;12.336;2023-03-01T03:01:49;-3.00;99.90
19888;DHT22;10106;51.332;12.336;2023-03-01T03:04:16;-2.90;99.90
19888;DHT22;10106;51.332;12.336;2023-03-01T03:06:43;-2.90;99.90
19888;DHT22;10106;51.332;12.336;2023-03-01T03:09:08;-2.90;99.90
19888;DHT22;10106;51.332;12.336;2023-03-01T03:11:34;-3.00;99.90
19888;DHT22;10106;51.332;12.336;2023-03-01T03:13:59;-3.00;99.90
19888;DHT22;10106;51.332;12.336;2023-03-01T03:16:25;-3.10;99.90
19888;DHT22;10106;51.332;12.336;2023-03-01T03:18:50;-3.10;99.90
19888;DHT22;10106;51.332;12.336;2023-03-01T03:21:16;-3.00;99.90
19888;DHT22;10106;51.332;12.336;2023-03-01T03:23:42;-3.00;99.90
19888;DHT22;10106;51.332;12.336;2023-03-01T03:26:08;-3.10;99.90
19888;DHT22;10106;51.332;12.336;2023-03-01T03:28:33;-3.20;99.90
19888;DHT22;10106;51.332;12.336;2023-03-01T03:31:00;-3.20;99.90
19888;DHT22;10106;51.332;12.336;2023-03-01T03:33:29;-3.20;99.90
19888;DHT22;10106;51.332;12.336;2023-03-01T03:35:55;-3.30;99.90
19888;DHT22;10106;51.332;12.336;2023-03-01T03:38:20;-3.30;99.90
19888;DHT22;10106;51.332;12.336;2023-03-01T03:40:51;-3.40;99.90
19888;DHT22;10106;51.332;12.336;2023-03-01T03:43:18;-3.30;99.90
19888;DHT22;10106;51.332;12.336;2023-03-01T03:45:44;-3.40;99.90
19888;DHT22;10106;51.332;12.336;2023-03-01T03:48:10;-3.40;99.90
19888;DHT22;10106;51.332;12.336;2023-03-01T03:50:39;-3.40;99.90
19888;DHT22;10106;51.332;12.336;2023-03-01T03:53:09;-3.30;99.90
19888;DHT22;10106;51.332;12.336;2023-03-01T03:55:35;-3.30;99.90
19888;DHT22;10106;51.332;12.336;2023-03-01T03:58:05;-3.30;99.90
19888;DHT22;10106;51.332;12.336;2023-03-01T04:00:36;-3.30;99.90
19888;DHT22;10106;51.332;12.336;2023-03-01T04:03:02;-3.30;99.90
19888;DHT22;10106;51.332;12.336;2023-03-01T04:05:28;-3.30;99.90
19888;DHT22;10106;51.332;12.336;2023-03-01T04:07:53;-3.30;99.90
19888;DHT22;10106;51.332;12.336;2023-03-01T04:10:27;-3.30;99.90
19888;DHT22;10106;51.332;12.336;2023-03-01T04:12:53;-3.40;99.90
19888;DHT22;10106;51.332;12.336;2023-03-01T04:15:18;-3.40;99.90
19888;DHT22;10106;51.332;12.336;2023-03-01T04:17:45;-3.40;99.90
19888;DHT22;10106;51.332;12.336;2023-03-01T04:20:11;-3.30;99.90
19888;DHT22;10106;51.332;12.336;2023-03-01T04:22:37;-3.40;99.90
19888;DHT22;10106;51.332;12.336;2023-03-01T04:25:03;-3.40;99.90
19888;DHT22;10106;51.332;12.336;2023-03-01T04:27:34;-3.40;99.90
19888;DHT22;10106;51.332;12.336;2023-03-01T04:29:59;-3.40;99.90
19888;DHT22;10106;51.332;12.336;2023-03-01T04:32:25;-3.40;99.90
19888;DHT22;10106;51.332;12.336;2023-03-01T04:34:50;-3.40;99.90
19888;DHT22;10106;51.332;12.336;2023-03-01T04:37:16;-3.40;99.90
19888;DHT22;10106;51.332;12.336;2023-03-01T04:39:41;-3.40;99.90
19888;DHT22;10106;51.332;12.336;2023-03-01T04:42:11;-3.40;99.90
19888;DHT22;10106;51.332;12.336;2023-03-01T04:44:37;-3.40;99.90
19888;DHT22;10106;51.332;12.336;2023-03-01T04:47:02;-3.40;99.90
19888;DHT22;10106;51.332;12.336;2023-03-01T04:49:28;-3.40;99.90
19888;DHT22;10106;51.332;12.336;2023-03-01T04:51:53;-3.40;99.90
19888;DHT22;10106;51.332;12.336;2023-03-01T04:54:19;-3.40;99.90
19888;DHT22;10106;51.332;12.336;2023-03-01T04:56:44;-3.40;99.90
19888;DHT22;10106;51.332;12.336;2023-03-01T04:59:10;-3.40;99.90
19888;DHT22;10106;51.332;12.336;2023-03-01T05:01:37;-3.50;99.90
19888;DHT22;10106;51.332;12.336;2023-03-01T05:04:03;-3.50;99.90
19888;DHT22;10106;51.332;12.336;2023-03-01T05:06:30;-3.50;99.90
19888;DHT22;10106;51.332;12.336;2023-03-01T05:08:56;-3.50;99.90
19888;DHT22;10106;51.332;12.336;2023-03-01T05:11:22;-3.50;99.90
19888;DHT22;10106;51.332;12.336;2023-03-01T05:13:47;-3.50;99.90
19888;DHT22;10106;51.332;12.336;2023-03-01T05:16:15;-3.50;99.90
19888;DHT22;10106;51.332;12.336;2023-03-01T05:18:42;-3.50;99.90
19888;DHT22;10106;51.332;12.336;2023-03-01T05:21:10;-3.50;99.90
19888;DHT22;10106;51.332;12.336;2023-03-01T05:23:35;-3.50;99.90
19888;DHT22;10106;51.332;12.336;2023-03-01T05:26:02;-3.50;99.90
19888;DHT22;10106;51.332;12.336;2023-03-01T05:28:29;-3.50;99.90
19888;DHT22;10106;51.332;12.336;2023-03-01T05:30:55;-3.50;99.90
19888;DHT22;10106;51.332;12.336;2023-03-01T05:33:21;-3.50;99.90
19888;DHT22;10106;51.332;12.336;2023-03-01T05:35:47;-3.40;99.90
19888;DHT22;10106;51.332;12.336;2023-03-01T05:38:14;-3.40;99.90
19888;DHT22;10106;51.332;12.336;2023-03-01T05:40:40;-3.40;99.90
19888;DHT22;10106;51.332;12.336;2023-03-01T05:43:06;-3.40;99.90
19888;DHT22;10106;51.332;12.336;2023-03-01T05:45:32;-3.30;99.90
19888;DHT22;10106;51.332;12.336;2023-03-01T05:47:58;-3.30;99.90
19888;DHT22;10106;51.332;12.336;2023-03-01T05:50:25;-3.30;99.90
19888;DHT22;10106;51.332;12.336;2023-03-01T05:52:51;-3.30;99.90
19888;DHT22;10106;51.332;12.336;2023-03-01T05:55:18;-3.30;99.90
19888;DHT22;10106;51.332;12.336;2023-03-01T05:57:44;-3.30;99.90
19888;DHT22;10106;51.332;12.336;2023-03-01T06:07:54;-3.20;99.90
19888;DHT22;10106;51.332;12.336;2023-03-01T06:10:20;-3.10;99.90
19888;DHT22;10106;51.332;12.336;2023-03-01T06:12:46;-2.90;99.90
19888;DHT22;10106;51.332;12.336;2023-03-01T06:15:12;-2.50;99.90
19888;DHT22;10106;51.332;12.336;2023-03-01T06:17:38;-2.10;99.90
19888;DHT22;10106;51.332;12.336;2023-03-01T06:20:05;-1.60;99.90
19888;DHT22;10106;51.332;12.336;2023-03-01T06:22:31;-1.10;99.90
19888;DHT22;10106;51.332;12.336;2023-03-01T06:24:57;-0.80;99.90
19888;DHT22;10106;51.332;12.336;2023-03-01T06:27:22;-0.50;99.90
19888;DHT22;10106;51.332;12.336;2023-03-01T06:32:14;0.70;99.90
19888;DHT22;10106;51.332;12.336;2023-03-01T06:34:39;1.40;99.90
19888;DHT22;10106;51.332;12.336;2023-03-01T06:37:05;1.90;99.90
19888;DHT22;10106;51.332;12.336;2023-03-01T06:39:32;2.20;99.90
19888;DHT22;10106;51.332;12.336;2023-03-01T06:41:58;2.20;99.90
19888;DHT22;10106;51.332;12.336;2023-03-01T06:44:23;2.20;99.90
19888;DHT22;10106;51.332;12.336;2023-03-01T06:46:49;2.20;99.90
19888;DHT22;10106;51.332;12.336;2023-03-01T06:49:15;2.30;99.90
19888;DHT22;10106;51.332;12.336;2023-03-01T06:51:44;2.60;99.90
19888;DHT22;10106;51.332;12.336;2023-03-01T06:54:10;3.10;99.90
19888;DHT22;10106;51.332;12.336;2023-03-01T06:56:36;4.00;99.90
19888;DHT22;10106;51.332;12.336;2023-03-01T06:59:02;4.90;99.90
19888;DHT22;10106;51.332;12.336;2023-03-01T07:01:29;5.50;99.90
19888;DHT22;10106;51.332;12.336;2023-03-01T07:03:55;6.00;99.90
19888;DHT22;10106;51.332;12.336;2023-03-01T07:06:21;6.10;99.90
19888;DHT22;10106;51.332;12.336;2023-03-01T07:08:47;6.10;99.90
19888;DHT22;10106;51.332;12.336;2023-03-01T07:11:13;6.10;99.90
19888;DHT22;10106;51.332;12.336;2023-03-01T07:13:39;6.20;99.90
19888;DHT22;10106;51.332;12.336;2023-03-01T07:16:04;6.20;99.90
19888;DHT22;10106;51.332;12.336;2023-03-01T07:18:30;6.20;99.90
19888;DHT22;10106;51.332;12.336;2023-03-01T07:20:56;6.50;99.90
19888;DHT22;10106;51.332;12.336;2023-03-01T07:23:22;7.90;99.90
19888;DHT22;10106;51.332;12.336;2023-03-01T07:25:56;8.90;96.90
19888;DHT22;10106;51.332;12.336;2023-03-01T07:28:22;9.90;94.10
19888;DHT22;10106;51.332;12.336;2023-03-01T07:30:48;10.50;90.90
19888;DHT22;10106;51.332;12.336;2023-03-01T07:33:14;11.30;87.80
19888;DHT22;10106;51.332;12.336;2023-03-01T07:35:39;11.80;82.50
19888;DHT22;10106;51.332;12.336;2023-03-01T07:38:05;12.80;80.20
19888;DHT22;10106;51.332;12.336;2023-03-01T07:40:31;12.90;77.80
19888;DHT22;10106;51.332;12.336;2023-03-01T07:42:57;13.30;73.10
19888;DHT22;10106;51.332;12.336;2023-03-01T07:45:23;13.50;79.20
19888;DHT22;10106;51.332;12.336;2023-03-01T07:47:50;13.90;76.80
19888;DHT22;10106;51.332;12.336;2023-03-01T07:50:16;14.30;78.60
19888;DHT22;10106;51.332;12.336;2023-03-01T07:52:44;14.80;63.00
19888;DHT22;10106;51.332;12.336;2023-03-01T07:55:10;15.20;64.60
19888;DHT22;10106;51.332;12.336;2023-03-01T07:57:35;15.70;61.10
19888;DHT22;10106;51.332;12.336;2023-03-01T08:00:01;15.90;58.10
19888;DHT22;10106;51.332;12.336;2023-03-01T08:02:27;16.10;57.50
19888;DHT22;10106;51.332;12.336;2023-03-01T08:04:52;16.60;55.60
19888;DHT22;10106;51.332;12.336;2023-03-01T08:07:18;17.30;55.20
19888;DHT22;10106;51.332;12.336;2023-03-01T08:09:44;17.10;53.40
19888;DHT22;10106;51.332;12.336;2023-03-01T08:12:10;17.90;51.60
19888;DHT22;10106;51.332;12.336;2023-03-01T08:14:35;17.80;50.70
19888;DHT22;10106;51.332;12.336;2023-03-01T08:17:01;18.30;49.60
19888;DHT22;10106;51.332;12.336;2023-03-01T08:19:28;18.00;48.20
19888;DHT22;10106;51.332;12.336;2023-03-01T08:21:54;17.80;48.70
19888;DHT22;10106;51.332;12.336;2023-03-01T08:24:20;17.20;48.40
19888;DHT22;10106;51.332;12.336;2023-03-01T08:26:46;17.00;48.70
19888;DHT22;10106;51.332;12.336;2023-03-01T08:29:12;17.80;47.90
19888;DHT22;10106;51.332;12.336;2023-03-01T08:31:39;17.70;48.20
19888;DHT22;10106;51.332;12.336;2023-03-01T08:34:08;18.20;46.80
19888;DHT22;10106;51.332;12.336;2023-03-01T08:36:42;19.30;45.40
19888;DHT22;10106;51.332;12.336;2023-03-01T08:39:13;19.50;44.80
19888;DHT22;10106;51.332;12.336;2023-03-01T08:41:39;19.80;44.10
19888;DHT22;10106;51.332;12.336;2023-03-01T08:44:05;18.80;44.20
19888;DHT22;10106;51.332;12.336;2023-03-01T08:46:34;19.30;44.50
19888;DHT22;10106;51.332;12.336;2023-03-01T08:49:04;19.30;43.70
19888;DHT22;10106;51.332;12.336;2023-03-01T08:51:30;18.80;42.70
19888;DHT22;10106;51.332;12.336;2023-03-01T08:53:57;18.70;44.40
19888;DHT22;10106;51.332;12.336;2023-03-01T08:56:23;18.50;44.30
19888;DHT22;10106;51.332;12.336;2023-03-01T08:58:49;18.90;43.90
19888;DHT22;10106;51.332;12.336;2023-03-01T09:01:17;19.00;42.50
19888;DHT22;10106;51.332;12.336;2023-03-01T09:03:43;16.90;43.50
19888;DHT22;10106;51.332;12.336;2023-03-01T09:06:10;15.60;46.50
19888;DHT22;10106;51.332;12.336;2023-03-01T09:08:41;17.00;45.70
19888;DHT22;10106;51.332;12.336;2023-03-01T09:11:09;17.00;44.50
19888;DHT22;10106;51.332;12.336;2023-03-01T09:13:35;18.00;44.20
19888;DHT22;10106;51.332;12.336;2023-03-01T09:16:02;17.80;51.60
19888;DHT22;10106;51.332;12.336;2023-03-01T09:18:28;18.40;52.70
19888;DHT22;10106;51.332;12.336;2023-03-01T09:21:04;19.60;43.20
19888;DHT22;10106;51.332;12.336;2023-03-01T09:23:36;19.90;41.80
19888;DHT22;10106;51.332;12.336;2023-03-01T09:26:02;19.60;40.70
19888;DHT22;10106;51.332;12.336;2023-03-01T09:28:28;18.10;42.00
19888;DHT22;10106;51.332;12.336;2023-03-01T09:30:58;17.50;42.80
19888;DHT22;10106;51.332;12.336;2023-03-01T09:33:24;16.90;44.50
19888;DHT22;10106;51.332;12.336;2023-03-01T09:35:49;17.90;43.10
19888;DHT22;10106;51.332;12.336;2023-03-01T09:38:15;18.20;43.00
19888;DHT22;10106;51.332;12.336;2023-03-01T09:40:44;17.10;42.50
19888;DHT22;10106;51.332;12.336;2023-03-01T09:43:21;17.20;43.80
19888;DHT22;10106;51.332;12.336;2023-03-01T09:45:50;16.60;43.50
19888;DHT22;10106;51.332;12.336;2023-03-01T09:48:20;15.60;57.90
19888;DHT22;10106;51.332;12.336;2023-03-01T09:50:49;14.90;58.50
19888;DHT22;10106;51.332;12.336;2023-03-01T09:53:21;14.30;59.00
19888;DHT22;10106;51.332;12.336;2023-03-01T09:56:24;15.50;46.10
19888;DHT22;10106;51.332;12.336;2023-03-01T10:02:01;14.60;46.20
19888;DHT22;10106;51.332;12.336;2023-03-01T10:05:26;15.20;45.90
19888;DHT22;10106;51.332;12.336;2023-03-01T10:08:00;12.80;45.90
19888;DHT22;10106;51.332;12.336;2023-03-01T10:10:38;9.50;51.10
19888;DHT22;10106;51.332;12.336;2023-03-01T10:13:33;7.50;56.20
19888;DHT22;10106;51.332;12.336;2023-03-01T10:18:59;5.50;67.90
19888;DHT22;10106;51.332;12.336;2023-03-01T10:21:27;5.10;69.50
19888;DHT22;10106;51.332;12.336;2023-03-01T10:23:53;4.80;72.80
19888;DHT22;10106;51.332;12.336;2023-03-01T10:29:12;4.90;79.80
19888;DHT22;10106;51.332;12.336;2023-03-01T10:31:44;4.80;81.80
19888;DHT22;10106;51.332;12.336;2023-03-01T10:34:17;4.90;84.30
19888;DHT22;10106;51.332;12.336;2023-03-01T10:36:47;5.00;85.20
19888;DHT22;10106;51.332;12.336;2023-03-01T10:39:17;5.00;85.10
19888;DHT22;10106;51.332;12.336;2023-03-01T10:42:13;5.10;86.70
19888;DHT22;10106;51.332;12.336;2023-03-01T10:44:48;5.20;85.40
19888;DHT22;10106;51.332;12.336;2023-03-01T10:47:25;4.90;85.40
19888;DHT22;10106;51.332;12.336;2023-03-01T10:49:59;4.90;85.70
19888;DHT22;10106;51.332;12.336;2023-03-01T10:52:35;4.80;86.40
19888;DHT22;10106;51.332;12.336;2023-03-01T10:57:34;4.90;88.90
19888;DHT22;10106;51.332;12.336;2023-03-01T11:00:25;5.00;89.10
19888;DHT22;10106;51.332;12.336;2023-03-01T11:05:24;5.20;89.40
19888;DHT22;10106;51.332;12.336;2023-03-01T11:07:55;5.10;89.30
19888;DHT22;10106;51.332;12.336;2023-03-01T11:10:35;5.00;88.80
19888;DHT22;10106;51.332;12.336;2023-03-01T11:13:16;5.00;88.90
19888;DHT22;10106;51.332;12.336;2023-03-01T11:15:43;5.00;88.70
19888;DHT22;10106;51.332;12.336;2023-03-01T11:18:23;5.10;90.10
19888;DHT22;10106;51.332;12.336;2023-03-01T11:20:51;5.20;90.80
19888;DHT22;10106;51.332;12.336;2023-03-01T11:23:27;5.30;91.20
19888;DHT22;10106;51.332;12.336;2023-03-01T11:26:04;5.40;91.40
19888;DHT22;10106;51.332;12.336;2023-03-01T11:28:33;5.50;90.90
19888;DHT22;10106;51.332;12.336;2023-03-01T11:31:05;5.30;91.30
19888;DHT22;10106;51.332;12.336;2023-03-01T11:36:52;5.20;91.40
19888;DHT22;10106;51.332;12.336;2023-03-01T11:51:04;5.10;92.80
19888;DHT22;10106;51.332;12.336;2023-03-01T11:53:38;5.00;94.60
19888;DHT22;10106;51.332;12.336;2023-03-01T11:56:47;5.10;94.30
19888;DHT22;10106;51.332;12.336;2023-03-01T12:02:15;5.10;93.70
19888;DHT22;10106;51.332;12.336;2023-03-01T12:11:09;5.10;93.10
19888;DHT22;10106;51.332;12.336;2023-03-01T12:13:52;5.00;93.30
19888;DHT22;10106;51.332;12.336;2023-03-01T12:16:30;5.00;93.40
19888;DHT22;10106;51.332;12.336;2023-03-01T12:33:58;5.30;93.20
19888;DHT22;10106;51.332;12.336;2023-03-01T12:42:16;5.20;91.30
19888;DHT22;10106;51.332;12.336;2023-03-01T12:50:46;5.10;91.90
19888;DHT22;10106;51.332;12.336;2023-03-01T12:59:11;5.20;92.30
19888;DHT22;10106;51.332;12.336;2023-03-01T13:07:33;5.20;93.10
19888;DHT22;10106;51.332;12.336;2023-03-01T13:17:53;5.20;93.10
19888;DHT22;10106;51.332;12.336;2023-03-01T13:20:27;5.30;93.20
19888;DHT22;10106;51.332;12.336;2023-03-01T13:26:14;5.40;93.20
19888;DHT22;10106;51.332;12.336;2023-03-01T13:28:56;5.50;92.40
19888;DHT22;10106;51.332;12.336;2023-03-01T13:33:56;5.50;90.90
19888;DHT22;10106;51.332;12.336;2023-03-01T13:47:16;5.60;90.70
19888;DHT22;10106;51.332;12.336;2023-03-01T13:52:39;5.60;88.60
19888;DHT22;10106;51.332;12.336;2023-03-01T13:55:17;5.60;87.90
19888;DHT22;10106;51.332;12.336;2023-03-01T13:57:48;5.60;88.40
19888;DHT22;10106;51.332;12.336;2023-03-01T14:03:15;5.70;87.80
19888;DHT22;10106;51.332;12.336;2023-03-01T14:06:06;5.70;85.20
19888;DHT22;10106;51.332;12.336;2023-03-01T14:08:33;5.70;85.30
19888;DHT22;10106;51.332;12.336;2023-03-01T14:13:59;5.70;83.40
19888;DHT22;10106;51.332;12.336;2023-03-01T14:17:00;5.70;83.90
19888;DHT22;10106;51.332;12.336;2023-03-01T14:19:30;5.70;85.00
19888;DHT22;10106;51.332;12.336;2023-03-01T14:22:27;5.70;84.60
19888;DHT22;10106;51.332;12.336;2023-03-01T14:25:02;5.70;85.20
19888;DHT22;10106;51.332;12.336;2023-03-01T14:27:36;5.70;85.30
19888;DHT22;10106;51.332;12.336;2023-03-01T14:30:12;5.70;84.30
19888;DHT22;10106;51.332;12.336;2023-03-01T14:32:40;5.70;81.30
19888;DHT22;10106;51.332;12.336;2023-03-01T14:35:27;5.70;81.10
19888;DHT22;10106;51.332;12.336;2023-03-01T14:37:53;5.70;79.60
19888;DHT22;10106;51.332;12.336;2023-03-01T14:42:55;5.70;78.60
19888;DHT22;10106;51.332;12.336;2023-03-01T14:45:22;5.80;77.00
19888;DHT22;10106;51.332;12.336;2023-03-01T14:47:49;5.70;76.20
19888;DHT22;10106;51.332;12.336;2023-03-01T14:50:26;5.80;74.90
19888;DHT22;10106;51.332;12.336;2023-03-01T14:53:01;5.70;75.00
19888;DHT22;10106;51.332;12.336;2023-03-01T14:58:03;5.60;74.40
19888;DHT22;10106;51.332;12.336;2023-03-01T15:00:30;5.60;74.00
19888;DHT22;10106;51.332;12.336;2023-03-01T15:03:00;5.60;74.20
19888;DHT22;10106;51.332;12.336;2023-03-01T15:05:35;5.60;74.70
19888;DHT22;10106;51.332;12.336;2023-03-01T15:08:02;5.60;75.30
19888;DHT22;10106;51.332;12.336;2023-03-01T15:10:31;5.60;75.20
19888;DHT22;10106;51.332;12.336;2023-03-01T15:13:14;5.60;75.10
19888;DHT22;10106;51.332;12.336;2023-03-01T15:15:44;5.50;75.70
19888;DHT22;10106;51.332;12.336;2023-03-01T15:18:25;5.50;76.20
19888;DHT22;10106;51.332;12.336;2023-03-01T15:20:51;5.50;76.30
19888;DHT22;10106;51.332;12.336;2023-03-01T15:23:26;5.50;76.80
19888;DHT22;10106;51.332;12.336;2023-03-01T15:25:53;5.50;77.20
19888;DHT22;10106;51.332;12.336;2023-03-01T15:28:31;5.60;77.90
19888;DHT22;10106;51.332;12.336;2023-03-01T15:31:02;5.50;78.10
19888;DHT22;10106;51.332;12.336;2023-03-01T15:33:33;5.50;77.80
19888;DHT22;10106;51.332;12.336;2023-03-01T15:36:04;5.50;77.70
19888;DHT22;10106;51.332;12.336;2023-03-01T15:38:58;5.50;77.40
19888;DHT22;10106;51.332;12.336;2023-03-01T15:41:46;5.50;77.70
19888;DHT22;10106;51.332;12.336;2023-03-01T15:44:25;5.40;77.50
19888;DHT22;10106;51.332;12.336;2023-03-01T15:46:51;5.40;78.00
19888;DHT22;10106;51.332;12.336;2023-03-01T15:49:42;5.40;78.50
19888;DHT22;10106;51.332;12.336;2023-03-01T15:52:25;5.30;78.70
19888;DHT22;10106;51.332;12.336;2023-03-01T15:54:56;5.30;78.70
19888;DHT22;10106;51.332;12.336;2023-03-01T15:57:22;5.30;77.70
19888;DHT22;10106;51.332;12.336;2023-03-01T15:59:48;5.30;77.70
19888;DHT22;10106;51.332;12.336;2023-03-01T16:02:14;5.30;77.50
19888;DHT22;10106;51.332;12.336;2023-03-01T16:04:40;5.20;78.00
19888;DHT22;10106;51.332;12.336;2023-03-01T16:07:06;5.20;78.60
19888;DHT22;10106;51.332;12.336;2023-03-01T16:09:31;5.10;78.60
19888;DHT22;10106;51.332;12.336;2023-03-01T16:11:57;5.10;78.20
19888;DHT22;10106;51.332;12.336;2023-03-01T16:14:23;5.10;78.00
19888;DHT22;10106;51.332;12.336;2023-03-01T16:16:49;5.10;77.90
19888;DHT22;10106;51.332;12.336;2023-03-01T16:19:15;5.00;77.90
19888;DHT22;10106;51.332;12.336;2023-03-01T16:21:42;5.00;78.40
19888;DHT22;10106;51.332;12.336;2023-03-01T16:24:14;5.00;78.60
19888;DHT22;10106;51.332;12.336;2023-03-01T16:26:40;4.90;78.00
19888;DHT22;10106;51.332;12.336;2023-03-01T16:29:07;4.90;78.10
19888;DHT22;10106;51.332;12.336;2023-03-01T16:31:33;4.80;78.20
19888;DHT22;10106;51.332;12.336;2023-03-01T16:33:59;4.80;78.40
19888;DHT22;10106;51.332;12.336;2023-03-01T16:36:26;4.70;78.40
19888;DHT22;10106;51.332;12.336;2023-03-01T16:38:54;4.70;78.50
19888;DHT22;10106;51.332;12.336;2023-03-01T16:41:22;4.70;78.80
19888;DHT22;10106;51.332;12.336;2023-03-01T16:43:48;4.60;78.80
19888;DHT22;10106;51.332;12.336;2023-03-01T16:46:24;4.50;79.10
19888;DHT22;10106;51.332;12.336;2023-03-01T16:48:50;4.50;79.70
19888;DHT22;10106;51.332;12.336;2023-03-01T16:51:17;4.40;79.80
19888;DHT22;10106;51.332;12.336;2023-03-01T16:53:43;4.40;80.40
19888;DHT22;10106;51.332;12.336;2023-03-01T16:56:11;4.30;80.60
19888;DHT22;10106;51.332;12.336;2023-03-01T16:58:38;4.30;81.90
19888;DHT22;10106;51.332;12.336;2023-03-01T17:01:14;4.20;81.80
19888;DHT22;10106;51.332;12.336;2023-03-01T17:03:41;4.20;82.20
19888;DHT22;10106;51.332;12.336;2023-03-01T17:06:10;4.10;82.80
19888;DHT22;10106;51.332;12.336;2023-03-01T17:08:37;4.10;83.40
19888;DHT22;10106;51.332;12.336;2023-03-01T17:13:30;3.90;84.20
19888;DHT22;10106;51.332;12.336;2023-03-01T17:15:55;3.90;84.70
19888;DHT22;10106;51.332;12.336;2023-03-01T17:18:21;3.90;84.80
19888;DHT22;10106;51.332;12.336;2023-03-01T17:20:46;3.90;85.40
19888;DHT22;10106;51.332;12.336;2023-03-01T17:23:12;3.80;85.80
19888;DHT22;10106;51.332;12.336;2023-03-01T17:25:42;3.70;86.20
19888;DHT22;10106;51.332;12.336;2023-03-01T17:28:12;3.70;86.80
19888;DHT22;10106;51.332;12.336;2023-03-01T17:30:41;3.60;87.30
19888;DHT22;10106;51.332;12.336;2023-03-01T17:33:07;3.60;87.40
19888;DHT22;10106;51.332;12.336;2023-03-01T17:35:32;3.50;88.90
19888;DHT22;10106;51.332;12.336;2023-03-01T17:38:03;3.50;88.60
19888;DHT22;10106;51.332;12.336;2023-03-01T17:40:29;3.50;89.00
19888;DHT22;10106;51.332;12.336;2023-03-01T17:42:55;3.40;89.20
19888;DHT22;10106;51.332;12.336;2023-03-01T17:45:21;3.40;89.70